Time;durP1;ratioP1;P1;durP2;ratioP2;P2;SDS_P1;SDS_P2;PMS_P1;PMS_P2;Temp;Humidity;BMP_temperature;BMP_pressure;BME280_temperature;BME280_humidity;BME280_pressure;Samples;Min_cycle;Max_cycle;Signal;HPM_P1;HPM_P2
2023/09/29 00:00:32;;;;;;;4.20;3.80;;;12.70;98.10;;;;;;2067374;28;20281;-82
2023/09/29 00:01:33;;;;;;;4.72;3.53;;;12.70;98.20;;;;;;2075287;28;20247;-82
2023/09/29 00:02:34;;;;;;;4.30;3.30;;;12.70;98.20;;;;;;2068434;28;20257;-82
2023/09/29 00:03:35;;;;;;;5.27;3.60;;;12.70;98.00;;;;;;2067022;28;20623;-82
2023/09/29 00:04:35;;;;;;;4.00;3.40;;;12.70;98.00;;;;;;2068489;28;20912;-84
2023/09/29 00:05:36;;;;;;;3.87;3.40;;;12.60;98.20;;;;;;2067964;28;20729;-81
2023/09/29 00:06:36;;;;;;;5.30;3.60;;;12.70;98.40;;;;;;2073453;28;20233;-82
2023/09/29 00:07:37;;;;;;;5.27;3.50;;;12.60;98.60;;;;;;2081780;28;20251;-82
2023/09/29 00:08:38;;;;;;;4.97;3.20;;;12.60;98.60;;;;;;2087019;28;20296;-82
2023/09/29 00:09:39;;;;;;;4.33;3.50;;;12.60;98.50;;;;;;2078295;28;20335;-82
2023/09/29 00:10:40;;;;;;;5.10;3.40;;;12.60;98.70;;;;;;2075343;28;20253;-83
2023/09/29 00:11:41;;;;;;;4.10;3.60;;;12.60;98.70;;;;;;2066864;28;20257;-82
2023/09/29 00:12:44;;;;;;;4.50;3.60;;;12.60;98.60;;;;;;2076777;28;20229;-84
2023/09/29 00:13:44;;;;;;;3.78;3.17;;;12.60;98.60;;;;;;2075390;28;20221;-83
2023/09/29 00:14:45;;;;;;;4.40;3.63;;;12.60;98.50;;;;;;2076694;28;20257;-84
2023/09/29 00:15:48;;;;;;;4.60;3.47;;;12.60;98.60;;;;;;2076193;28;20242;-83
2023/09/29 00:16:49;;;;;;;4.30;3.58;;;12.60;98.70;;;;;;2075041;28;20728;-82
2023/09/29 00:17:50;;;;;;;4.10;3.70;;;12.60;98.80;;;;;;2076727;28;20228;-83
2023/09/29 00:18:50;;;;;;;5.40;4.00;;;12.60;98.80;;;;;;2075401;28;20225;-81
2023/09/29 00:19:51;;;;;;;6.13;3.40;;;12.50;98.70;;;;;;2067335;28;20503;-83
2023/09/29 00:20:52;;;;;;;3.73;3.30;;;12.50;98.70;;;;;;2067798;28;20226;-83
2023/09/29 00:21:52;;;;;;;4.03;3.43;;;12.60;98.60;;;;;;2075662;28;20225;-83
2023/09/29 00:22:54;;;;;;;4.10;3.43;;;12.50;98.70;;;;;;2075990;28;20236;-82
2023/09/29 00:23:54;;;;;;;5.18;3.80;;;12.50;98.70;;;;;;2075134;28;20237;-82
2023/09/29 00:24:55;;;;;;;4.57;3.67;;;12.50;98.50;;;;;;2077187;28;20317;-83
2023/09/29 00:25:56;;;;;;;3.07;2.77;;;12.50;98.50;;;;;;2076847;28;20241;-83
2023/09/29 00:26:56;;;;;;;4.47;3.40;;;12.50;98.80;;;;;;2073284;28;20295;-83
2023/09/29 00:27:57;;;;;;;4.77;3.50;;;12.50;98.60;;;;;;2071517;28;20225;-82
2023/09/29 00:28:59;;;;;;;3.90;3.50;;;12.50;98.40;;;;;;2063908;28;20711;-82
2023/09/29 00:30:00;;;;;;;6.47;3.60;;;12.50;98.60;;;;;;2064519;28;20762;-82
2023/09/29 00:31:02;;;;;;;5.78;3.47;;;12.50;98.60;;;;;;2072863;28;20249;-82
2023/09/29 00:32:03;;;;;;;4.47;3.53;;;12.50;98.70;;;;;;2072709;28;20217;-81
2023/09/29 00:33:04;;;;;;;4.23;3.30;;;12.50;98.50;;;;;;2073011;28;20296;-81
2023/09/29 00:34:06;;;;;;;4.38;3.38;;;12.50;98.60;;;;;;2073197;28;20186;-82
2023/09/29 00:35:09;;;;;;;4.82;3.65;;;12.50;98.70;;;;;;2072858;28;20670;-81
2023/09/29 00:36:11;;;;;;;6.32;3.63;;;12.50;98.70;;;;;;2064932;28;20221;-82
2023/09/29 00:37:11;;;;;;;3.65;3.03;;;12.50;98.80;;;;;;2065205;28;20224;-82
2023/09/29 00:38:12;;;;;;;5.50;3.53;;;12.50;98.70;;;;;;2065099;28;20865;-82
2023/09/29 00:39:14;;;;;;;4.13;3.20;;;12.50;98.70;;;;;;2065926;28;20627;-81
2023/09/29 00:40:14;;;;;;;4.35;3.65;;;12.40;98.60;;;;;;2074208;28;20434;-82
2023/09/29 00:41:15;;;;;;;4.67;3.60;;;12.40;98.80;;;;;;2074580;28;20548;-82
2023/09/29 00:42:16;;;;;;;3.83;3.30;;;12.40;98.90;;;;;;2073330;28;20255;-82
2023/09/29 00:43:18;;;;;;;3.92;3.40;;;12.40;99.00;;;;;;2066657;28;20198;-83
2023/09/29 00:44:19;;;;;;;4.20;3.50;;;12.40;99.60;;;;;;2066348;28;20186;-83
2023/09/29 00:45:22;;;;;;;4.28;3.10;;;12.40;99.20;;;;;;2066618;28;20622;-83
2023/09/29 00:46:25;;;;;;;4.40;3.63;;;12.40;99.10;;;;;;2066465;28;20244;-82
2023/09/29 00:47:25;;;;;;;3.85;3.42;;;12.40;99.20;;;;;;2066507;28;20380;-83
2023/09/29 00:48:29;;;;;;;3.77;3.37;;;12.30;99.40;;;;;;2074916;28;20240;-81
2023/09/29 00:49:30;;;;;;;4.03;3.50;;;12.30;99.30;;;;;;2065802;28;20232;-82
2023/09/29 00:50:31;;;;;;;3.80;3.30;;;12.30;99.40;;;;;;2067634;28;20293;-83
2023/09/29 00:51:34;;;;;;;5.67;2.80;;;12.20;99.60;;;;;;2074636;28;20217;-82
2023/09/29 00:52:38;;;;;;;3.22;2.90;;;12.20;99.70;;;;;;2075029;28;20217;-83
2023/09/29 00:53:38;;;;;;;5.40;3.40;;;12.30;99.80;;;;;;2075743;28;20221;-82
2023/09/29 00:54:39;;;;;;;4.50;3.30;;;12.20;99.60;;;;;;2075016;28;20216;-82
2023/09/29 00:55:41;;;;;;;3.50;3.13;;;12.30;99.60;;;;;;2066580;28;20234;-82
2023/09/29 00:56:43;;;;;;;3.17;2.88;;;12.30;99.60;;;;;;2069600;28;20222;-83
2023/09/29 00:57:48;;;;;;;3.90;3.38;;;12.30;99.60;;;;;;2076990;28;20320;-82
2023/09/29 00:58:48;;;;;;;3.70;3.33;;;12.40;99.60;;;;;;2075877;28;20221;-82
2023/09/29 00:59:51;;;;;;;3.77;3.37;;;12.30;99.30;;;;;;2075730;28;20237;-83
2023/09/29 01:00:52;;;;;;;4.07;3.38;;;12.40;99.50;;;;;;2075514;28;20225;-83
2023/09/29 01:01:53;;;;;;;4.22;3.47;;;12.40;99.60;;;;;;2074268;28;20244;-83
2023/09/29 01:02:53;;;;;;;3.97;3.43;;;12.30;99.50;;;;;;2073770;28;20225;-81
2023/09/29 01:03:54;;;;;;;3.90;3.43;;;12.40;99.50;;;;;;2075198;28;20245;-83
2023/09/29 01:04:55;;;;;;;5.43;3.40;;;12.30;99.60;;;;;;2075127;28;20300;-83
2023/09/29 01:05:56;;;;;;;4.17;3.40;;;12.40;99.50;;;;;;2074707;28;20233;-83
2023/09/29 01:06:57;;;;;;;4.10;3.30;;;12.30;99.40;;;;;;2067595;28;20732;-83
2023/09/29 01:07:57;;;;;;;5.23;3.43;;;12.40;99.50;;;;;;2066517;28;20268;-81
2023/09/29 01:08:59;;;;;;;4.80;3.60;;;12.30;99.40;;;;;;2074821;28;20313;-83
2023/09/29 01:09:59;;;;;;;4.13;3.15;;;12.30;99.30;;;;;;2075766;28;20222;-82
2023/09/29 01:11:00;;;;;;;4.10;3.60;;;12.20;99.50;;;;;;2075581;28;20232;-83
2023/09/29 01:12:00;;;;;;;3.93;3.50;;;12.20;99.70;;;;;;2074891;28;20225;-83
2023/09/29 01:13:01;;;;;;;4.37;3.30;;;12.10;99.70;;;;;;2074409;28;20302;-83
2023/09/29 01:14:02;;;;;;;4.47;3.90;;;12.20;99.50;;;;;;2075313;28;20217;-83
2023/09/29 01:15:05;;;;;;;6.15;4.43;;;12.20;99.60;;;;;;2074410;28;20220;-84
2023/09/29 01:16:06;;;;;;;4.78;3.80;;;12.10;99.70;;;;;;2065435;28;20226;-83
2023/09/29 01:17:07;;;;;;;5.83;3.67;;;12.10;99.60;;;;;;2075068;28;20320;-84
2023/09/29 01:18:11;;;;;;;3.53;3.22;;;12.10;99.60;;;;;;2079689;28;20273;-82
2023/09/29 01:19:13;;;;;;;4.05;3.30;;;12.10;99.90;;;;;;2077543;28;20181;-84
2023/09/29 01:20:27;;;;;;;5.10;3.38;;;12.00;99.90;;;;;;2076225;28;20202;-83
2023/09/29 01:21:30;;;;;;;4.15;3.40;;;12.00;99.90;;;;;;2069689;28;20232;-83
2023/09/29 01:22:31;;;;;;;4.00;3.08;;;11.90;99.90;;;;;;2075594;28;20226;-83
2023/09/29 01:23:34;;;;;;;3.87;3.47;;;12.10;99.90;;;;;;2076385;28;20229;-84
2023/09/29 01:24:35;;;;;;;4.30;3.65;;;12.00;99.90;;;;;;2075953;28;20252;-83
2023/09/29 01:25:37;;;;;;;5.23;3.50;;;12.00;99.90;;;;;;2075854;28;20241;-83
2023/09/29 01:26:38;;;;;;;3.50;3.20;;;12.10;99.90;;;;;;2078842;28;20256;-82
2023/09/29 01:27:39;;;;;;;4.70;3.80;;;12.00;99.90;;;;;;2081264;28;20233;-82
2023/09/29 01:28:40;;;;;;;4.00;3.60;;;12.10;99.90;;;;;;2079075;28;20237;-83
2023/09/29 01:29:43;;;;;;;6.13;3.73;;;12.10;99.90;;;;;;2077971;28;20237;-83
2023/09/29 01:30:45;;;;;;;4.15;3.50;;;12.10;99.90;;;;;;2066405;28;20591;-82
2023/09/29 01:31:45;;;;;;;4.68;3.55;;;12.10;99.90;;;;;;2077469;28;20229;-83
2023/09/29 01:32:48;;;;;;;4.07;3.50;;;12.10;99.80;;;;;;2073011;28;20233;-83
2023/09/29 01:33:49;;;;;;;4.13;3.72;;;12.10;99.80;;;;;;2076438;28;20225;-83
2023/09/29 01:34:49;;;;;;;5.27;3.90;;;12.10;99.90;;;;;;2068357;28;20234;-83
2023/09/29 01:35:51;;;;;;;4.17;3.47;;;12.10;99.90;;;;;;2067601;28;20230;-83
2023/09/29 01:36:51;;;;;;;5.20;3.80;;;12.10;99.90;;;;;;2068175;28;20280;-83
2023/09/29 01:37:53;;;;;;;4.37;3.67;;;12.10;99.90;;;;;;2067273;28;20218;-82
2023/09/29 01:38:54;;;;;;;4.13;3.38;;;12.10;99.90;;;;;;2067529;28;20286;-83
2023/09/29 01:39:54;;;;;;;3.80;3.30;;;12.10;99.90;;;;;;2075291;28;20678;-83
2023/09/29 01:40:55;;;;;;;4.50;3.67;;;12.00;99.90;;;;;;2074706;28;20233;-81
2023/09/29 01:41:56;;;;;;;5.22;3.45;;;11.90;99.90;;;;;;2075911;28;20232;-82
2023/09/29 01:42:57;;;;;;;4.13;3.60;;;11.90;99.90;;;;;;2078476;28;20248;-82
2023/09/29 01:43:57;;;;;;;3.90;3.10;;;11.80;99.90;;;;;;2072703;28;20265;-82
2023/09/29 01:44:58;;;;;;;4.57;3.63;;;11.90;99.90;;;;;;2080811;28;20229;-83
2023/09/29 01:46:00;;;;;;;3.83;3.23;;;11.90;99.90;;;;;;2080359;28;20741;-82
2023/09/29 01:47:01;;;;;;;4.13;3.30;;;11.90;99.90;;;;;;2077844;28;20246;-82
2023/09/29 01:48:01;;;;;;;4.23;3.70;;;12.00;99.90;;;;;;2077358;28;20222;-83
2023/09/29 01:49:02;;;;;;;5.37;3.50;;;12.00;99.90;;;;;;2076068;28;20248;-83
2023/09/29 01:50:03;;;;;;;4.17;3.50;;;12.00;99.90;;;;;;2067897;28;20309;-83
2023/09/29 01:51:03;;;;;;;4.30;3.50;;;12.10;99.90;;;;;;2074955;28;20229;-82
2023/09/29 01:52:04;;;;;;;4.27;3.13;;;12.00;99.90;;;;;;2075080;28;20185;-82
2023/09/29 01:53:06;;;;;;;3.97;3.25;;;12.10;99.90;;;;;;2075176;28;20200;-82
2023/09/29 01:54:07;;;;;;;3.40;3.10;;;12.20;99.90;;;;;;2075689;28;20276;-83
2023/09/29 01:55:16;;;;;;;3.87;3.43;;;12.10;99.90;;;;;;2075926;28;20180;-83
2023/09/29 01:56:16;;;;;;;7.80;3.55;;;12.20;99.90;;;;;;2076226;28;20186;-83
2023/09/29 01:57:17;;;;;;;4.17;3.23;;;12.10;99.80;;;;;;2084058;28;20186;-82
2023/09/29 01:58:17;;;;;;;5.60;3.50;;;12.20;99.80;;;;;;2075248;28;20624;-83
2023/09/29 01:59:18;;;;;;;4.03;3.63;;;12.20;99.90;;;;;;2075321;28;20284;-83
2023/09/29 02:00:26;;;;;;;3.90;3.40;;;12.20;99.90;;;;;;2074676;28;20261;-82
2023/09/29 02:01:26;;;;;;;4.20;3.50;;;12.20;99.90;;;;;;2074733;28;20241;-83
2023/09/29 02:02:27;;;;;;;4.43;3.37;;;12.10;99.90;;;;;;2067330;28;20236;-83
2023/09/29 02:03:27;;;;;;;3.70;3.30;;;12.10;99.90;;;;;;2075723;28;20226;-83
2023/09/29 02:04:28;;;;;;;4.13;3.30;;;12.20;99.90;;;;;;2074203;28;20268;-83
2023/09/29 02:05:29;;;;;;;4.03;3.63;;;12.20;99.90;;;;;;2076078;28;20271;-83
2023/09/29 02:06:30;;;;;;;4.00;3.60;;;12.10;99.90;;;;;;2074802;28;20295;-83
2023/09/29 02:07:30;;;;;;;3.87;3.43;;;12.20;99.90;;;;;;2075330;28;20248;-83
2023/09/29 02:08:31;;;;;;;4.67;3.63;;;12.10;99.90;;;;;;2066978;28;20246;-83
2023/09/29 02:09:31;;;;;;;3.67;3.30;;;12.20;99.90;;;;;;2066569;28;20293;-83
2023/09/29 02:10:32;;;;;;;4.73;3.73;;;12.10;99.90;;;;;;2067088;28;20316;-83
2023/09/29 02:11:33;;;;;;;4.00;3.10;;;12.20;99.90;;;;;;2066436;28;20285;-83
2023/09/29 02:12:34;;;;;;;3.80;3.30;;;12.30;99.90;;;;;;2067035;28;20286;-84
2023/09/29 02:13:35;;;;;;;4.55;3.72;;;12.30;99.90;;;;;;2067420;28;20281;-83
2023/09/29 02:14:36;;;;;;;4.50;3.60;;;12.30;99.80;;;;;;2074742;28;20273;-83
2023/09/29 02:15:37;;;;;;;3.60;3.30;;;12.40;99.90;;;;;;2075029;28;20213;-84
2023/09/29 02:16:37;;;;;;;4.93;3.30;;;12.30;99.70;;;;;;2075354;28;20217;-83
2023/09/29 02:17:38;;;;;;;3.63;3.30;;;12.30;99.70;;;;;;2075438;28;20275;-83
2023/09/29 02:18:38;;;;;;;4.10;3.70;;;12.30;99.70;;;;;;2076471;28;20217;-83
2023/09/29 02:19:39;;;;;;;6.73;3.23;;;12.40;99.70;;;;;;2076528;28;20249;-83
2023/09/29 02:20:46;;;;;;;4.97;3.80;;;12.40;99.60;;;;;;2075756;28;20257;-84
2023/09/29 02:21:47;;;;;;;4.10;3.42;;;12.40;99.30;;;;;;2072054;28;20431;-82
2023/09/29 02:22:50;;;;;;;5.20;3.17;;;12.40;99.40;;;;;;2068056;28;20665;-84
2023/09/29 02:23:51;;;;;;;3.70;3.30;;;12.30;99.80;;;;;;2076118;28;20232;-82
2023/09/29 02:24:51;;;;;;;5.60;3.40;;;12.30;99.90;;;;;;2077264;28;20248;-83
2023/09/29 02:25:52;;;;;;;3.87;3.17;;;12.20;99.90;;;;;;2075894;28;20225;-84
2023/09/29 02:26:53;;;;;;;3.80;2.93;;;12.20;99.90;;;;;;2076660;28;20227;-83
2023/09/29 02:27:58;;;;;;;3.70;3.33;;;12.20;99.90;;;;;;2076413;28;20225;-83
2023/09/29 02:28:58;;;;;;;5.95;3.42;;;12.20;99.90;;;;;;2076382;28;20233;-83
2023/09/29 02:29:59;;;;;;;3.43;3.13;;;12.10;99.90;;;;;;2079857;28;20307;-84
2023/09/29 02:31:03;;;;;;;4.43;3.43;;;12.20;99.90;;;;;;2078451;28;20225;-81
2023/09/29 02:32:04;;;;;;;3.72;3.20;;;12.20;99.90;;;;;;2075700;28;20272;-81
2023/09/29 02:33:06;;;;;;;3.33;3.00;;;12.20;99.90;;;;;;2076067;28;20194;-82
2023/09/29 02:34:07;;;;;;;3.85;3.10;;;12.20;99.90;;;;;;2067830;28;20218;-83
2023/09/29 02:35:09;;;;;;;4.10;3.60;;;12.30;99.90;;;;;;2076469;28;20265;-83
2023/09/29 02:36:09;;;;;;;3.83;3.20;;;12.20;99.90;;;;;;2075361;28;20182;-82
2023/09/29 02:37:10;;;;;;;3.40;3.10;;;12.30;99.90;;;;;;2076071;28;20590;-83
2023/09/29 02:38:10;;;;;;;3.53;3.10;;;12.30;99.90;;;;;;2071281;28;20205;-81
2023/09/29 02:39:11;;;;;;;3.73;3.33;;;12.30;99.90;;;;;;2075635;28;20174;-82
2023/09/29 02:40:12;;;;;;;3.90;3.50;;;12.30;99.90;;;;;;2075806;28;20276;-82
2023/09/29 02:41:13;;;;;;;3.80;3.40;;;12.40;99.90;;;;;;2076052;28;20186;-82
2023/09/29 02:42:13;;;;;;;4.10;3.70;;;12.40;99.90;;;;;;2075888;28;20690;-82
2023/09/29 02:43:15;;;;;;;4.77;3.50;;;12.30;99.90;;;;;;2076520;28;20664;-83
2023/09/29 02:44:16;;;;;;;4.15;3.15;;;12.30;99.90;;;;;;2075757;28;20665;-83
2023/09/29 02:45:17;;;;;;;3.63;3.33;;;12.30;99.90;;;;;;2077180;28;20181;-83
2023/09/29 02:46:17;;;;;;;3.53;3.22;;;12.30;99.80;;;;;;2075768;28;20189;-83
2023/09/29 02:47:18;;;;;;;4.87;3.30;;;12.30;99.90;;;;;;2067988;28;20213;-83
2023/09/29 02:48:18;;;;;;;4.47;3.13;;;12.40;99.80;;;;;;2076607;28;20214;-83
2023/09/29 02:49:20;;;;;;;4.53;3.20;;;12.40;99.70;;;;;;2076499;28;20282;-82
2023/09/29 02:50:20;;;;;;;4.22;3.53;;;12.40;99.60;;;;;;2076228;28;20189;-83
2023/09/29 02:51:21;;;;;;;3.47;3.17;;;12.40;99.60;;;;;;2067957;28;20265;-83
2023/09/29 02:52:22;;;;;;;4.00;3.17;;;12.40;99.30;;;;;;2075616;28;20209;-82
2023/09/29 02:53:22;;;;;;;4.17;3.60;;;12.40;99.20;;;;;;2076676;28;20269;-83
2023/09/29 02:54:23;;;;;;;3.60;3.27;;;12.30;99.10;;;;;;2068054;28;20198;-83
2023/09/29 02:55:23;;;;;;;5.40;3.50;;;12.30;99.10;;;;;;2076317;28;20241;-83
2023/09/29 02:56:24;;;;;;;3.60;3.30;;;12.30;99.20;;;;;;2076894;28;20241;-84
2023/09/29 02:57:24;;;;;;;3.43;3.13;;;12.20;99.30;;;;;;2076999;28;20238;-83
2023/09/29 02:58:25;;;;;;;3.90;3.53;;;12.20;99.40;;;;;;2075501;28;20731;-82
2023/09/29 02:59:25;;;;;;;3.57;3.07;;;12.20;99.60;;;;;;2075032;28;20237;-81
2023/09/29 03:00:27;;;;;;;4.00;3.60;;;12.10;99.80;;;;;;2068256;28;20230;-82
2023/09/29 03:01:27;;;;;;;4.40;3.60;;;12.20;99.80;;;;;;2075956;28;20241;-83
2023/09/29 03:02:28;;;;;;;4.77;3.40;;;12.10;99.80;;;;;;2076073;28;20225;-83
2023/09/29 03:03:28;;;;;;;4.10;3.40;;;12.10;99.80;;;;;;2067707;28;20230;-83
2023/09/29 03:04:29;;;;;;;4.10;3.57;;;12.10;99.90;;;;;;2067913;28;20296;-83
2023/09/29 03:05:30;;;;;;;4.03;3.47;;;12.10;99.80;;;;;;2067344;28;20714;-83
2023/09/29 03:06:32;;;;;;;4.60;3.58;;;12.10;99.80;;;;;;2070133;28;20240;-84
2023/09/29 03:07:34;;;;;;;3.53;3.20;;;12.10;99.90;;;;;;2067881;28;20214;-84
2023/09/29 03:08:36;;;;;;;3.75;3.35;;;12.10;99.90;;;;;;2068269;28;20218;-84
2023/09/29 03:09:37;;;;;;;3.85;3.50;;;12.00;99.90;;;;;;2075475;28;20214;-84
2023/09/29 03:10:37;;;;;;;3.93;3.53;;;12.00;99.90;;;;;;2071941;28;20690;-83
2023/09/29 03:11:39;;;;;;;5.07;3.50;;;12.00;99.90;;;;;;2071988;28;20217;-83
2023/09/29 03:12:41;;;;;;;4.22;3.70;;;12.00;99.90;;;;;;2072015;28;20842;-83
2023/09/29 03:13:41;;;;;;;4.32;3.72;;;12.00;99.90;;;;;;2073188;28;20224;-82
2023/09/29 03:14:42;;;;;;;4.00;3.53;;;12.00;99.90;;;;;;2072894;28;20221;-83
2023/09/29 03:15:43;;;;;;;4.57;4.00;;;12.00;99.90;;;;;;2072386;28;20606;-82
2023/09/29 03:16:45;;;;;;;4.10;3.63;;;12.00;99.90;;;;;;2073548;28;20221;-83
2023/09/29 03:17:46;;;;;;;4.22;3.75;;;12.00;99.90;;;;;;2065035;28;20242;-83
2023/09/29 03:18:47;;;;;;;4.25;3.83;;;12.00;99.90;;;;;;2065558;28;20238;-83
2023/09/29 03:19:48;;;;;;;4.20;3.60;;;12.00;99.90;;;;;;2073740;28;20229;-83
2023/09/29 03:20:50;;;;;;;6.18;3.75;;;12.00;99.90;;;;;;2073434;28;20229;-83
2023/09/29 03:21:51;;;;;;;5.53;3.60;;;12.10;99.90;;;;;;2063666;28;20695;-83
2023/09/29 03:22:52;;;;;;;3.97;3.57;;;12.10;99.90;;;;;;2073859;28;20229;-82
2023/09/29 03:23:52;;;;;;;3.93;3.57;;;12.00;99.90;;;;;;2080949;28;20248;-82
2023/09/29 03:24:53;;;;;;;4.40;3.67;;;12.00;99.90;;;;;;2081348;28;20237;-83
2023/09/29 03:25:55;;;;;;;4.90;3.93;;;11.90;99.90;;;;;;2078568;28;20225;-84
2023/09/29 03:26:55;;;;;;;4.97;3.83;;;12.00;99.90;;;;;;2077686;28;20816;-84
2023/09/29 03:27:56;;;;;;;4.33;3.93;;;11.90;99.90;;;;;;2077545;28;20241;-84
2023/09/29 03:28:57;;;;;;;4.20;3.67;;;11.90;99.90;;;;;;2077606;28;20309;-84
2023/09/29 03:30:00;;;;;;;4.13;3.67;;;12.00;99.90;;;;;;2077427;28;20282;-84
2023/09/29 03:31:06;;;;;;;4.20;3.20;;;11.90;99.90;;;;;;2077049;28;20233;-84
2023/09/29 03:32:08;;;;;;;3.78;3.38;;;11.90;99.90;;;;;;2067757;28;20257;-84
2023/09/29 03:33:10;;;;;;;6.95;3.85;;;11.80;99.90;;;;;;2068563;28;20217;-83
2023/09/29 03:34:10;;;;;;;3.85;3.50;;;11.70;99.90;;;;;;2068357;28;20265;-83
2023/09/29 03:35:11;;;;;;;3.87;3.20;;;11.70;99.90;;;;;;2075656;28;20189;-84
2023/09/29 03:36:12;;;;;;;3.83;3.40;;;11.70;99.90;;;;;;2075868;28;20181;-83
2023/09/29 03:37:13;;;;;;;5.23;3.83;;;11.80;99.90;;;;;;2076376;28;20457;-84
2023/09/29 03:38:20;;;;;;;4.17;3.60;;;11.70;99.90;;;;;;2075965;28;20339;-84
2023/09/29 03:39:21;;;;;;;4.95;3.78;;;11.70;99.90;;;;;;2077670;28;20200;-83
2023/09/29 03:40:21;;;;;;;3.93;3.40;;;11.70;99.90;;;;;;2077669;28;20249;-84
2023/09/29 03:41:23;;;;;;;5.13;3.70;;;11.70;99.90;;;;;;2075585;28;20221;-82
2023/09/29 03:42:23;;;;;;;3.95;3.50;;;11.80;99.90;;;;;;2075957;28;20264;-84
2023/09/29 03:43:24;;;;;;;4.67;3.40;;;11.80;99.90;;;;;;2074939;28;20285;-84
2023/09/29 03:44:25;;;;;;;4.10;3.70;;;11.80;99.90;;;;;;2068268;28;20628;-82
2023/09/29 03:45:26;;;;;;;4.40;3.90;;;11.80;99.90;;;;;;2066989;28;20665;-83
2023/09/29 03:46:28;;;;;;;3.57;3.27;;;11.80;99.90;;;;;;2075645;28;20260;-83
2023/09/29 03:47:29;;;;;;;4.03;3.63;;;11.80;99.90;;;;;;2075121;28;20235;-84
2023/09/29 03:48:30;;;;;;;4.77;3.40;;;11.70;99.90;;;;;;2075557;28;20233;-83
2023/09/29 03:49:31;;;;;;;4.40;3.87;;;11.70;99.90;;;;;;2078996;28;20245;-82
2023/09/29 03:50:35;;;;;;;4.03;3.47;;;11.70;99.90;;;;;;2079779;28;20241;-82
2023/09/29 03:51:36;;;;;;;4.65;3.63;;;11.70;99.90;;;;;;2079430;28;20230;-82
2023/09/29 03:52:37;;;;;;;4.13;3.70;;;11.70;99.90;;;;;;2080011;28;20225;-83
2023/09/29 03:53:38;;;;;;;3.88;3.50;;;11.70;99.90;;;;;;2079412;28;20300;-84
2023/09/29 03:54:39;;;;;;;4.03;3.50;;;11.70;99.90;;;;;;2076630;28;20221;-84
2023/09/29 03:55:40;;;;;;;3.90;3.40;;;11.80;99.90;;;;;;2076637;28;20237;-84
2023/09/29 03:56:40;;;;;;;4.03;3.63;;;11.70;99.90;;;;;;2077023;28;20292;-83
2023/09/29 03:57:41;;;;;;;4.43;3.53;;;11.80;99.90;;;;;;2074280;28;20221;-82
2023/09/29 03:58:43;;;;;;;3.97;3.47;;;11.80;99.90;;;;;;2076961;28;20280;-83
2023/09/29 03:59:44;;;;;;;5.35;3.90;;;11.80;99.90;;;;;;2076537;28;20276;-84
2023/09/29 04:00:44;;;;;;;5.53;3.70;;;11.80;99.90;;;;;;2075912;28;21112;-83
2023/09/29 04:01:45;;;;;;;4.90;3.77;;;11.80;99.90;;;;;;2076374;28;20236;-83
2023/09/29 04:02:50;;;;;;;6.00;3.73;;;11.80;99.90;;;;;;2076654;28;20245;-84
2023/09/29 04:03:51;;;;;;;5.30;3.42;;;11.90;99.90;;;;;;2075578;28;20233;-84
2023/09/29 04:04:51;;;;;;;4.63;3.57;;;11.80;99.90;;;;;;2068246;28;20222;-84
2023/09/29 04:05:52;;;;;;;3.97;3.40;;;11.80;99.90;;;;;;2067611;28;20234;-84
2023/09/29 04:06:53;;;;;;;4.43;3.80;;;11.80;99.90;;;;;;2066950;28;20261;-83
2023/09/29 04:07:53;;;;;;;4.97;3.70;;;11.80;99.90;;;;;;2075309;28;20233;-84
2023/09/29 04:08:55;;;;;;;4.43;3.53;;;11.80;99.90;;;;;;2081748;28;20288;-84
2023/09/29 04:09:55;;;;;;;4.97;4.03;;;11.80;99.90;;;;;;2077315;28;20221;-83
2023/09/29 04:10:56;;;;;;;4.57;3.60;;;11.80;99.90;;;;;;2075639;28;20892;-84
2023/09/29 04:11:57;;;;;;;5.13;3.83;;;11.80;99.90;;;;;;2067095;28;20293;-84
2023/09/29 04:12:57;;;;;;;4.80;3.80;;;11.90;99.90;;;;;;2068589;28;20226;-84
2023/09/29 04:13:58;;;;;;;4.20;3.80;;;11.80;99.90;;;;;;2067216;28;20627;-83
2023/09/29 04:14:59;;;;;;;4.70;3.73;;;11.80;99.90;;;;;;2075393;28;20221;-83
2023/09/29 04:16:06;;;;;;;5.27;3.70;;;11.90;99.90;;;;;;2083924;28;20224;-84
2023/09/29 04:17:06;;;;;;;4.15;3.70;;;11.90;99.90;;;;;;2081539;28;20225;-83
2023/09/29 04:18:07;;;;;;;4.70;3.80;;;12.00;99.90;;;;;;2075709;28;20220;-83
2023/09/29 04:19:09;;;;;;;4.37;3.60;;;11.90;99.90;;;;;;2075751;28;20194;-84
2023/09/29 04:20:10;;;;;;;4.72;3.65;;;11.90;99.90;;;;;;2075091;28;20200;-83
2023/09/29 04:21:15;;;;;;;4.28;3.70;;;12.00;99.90;;;;;;2067056;28;20194;-83
2023/09/29 04:22:16;;;;;;;4.15;3.72;;;12.10;99.90;;;;;;2067131;28;20222;-84
2023/09/29 04:23:16;;;;;;;4.20;3.72;;;12.10;99.90;;;;;;2067471;28;20244;-83
2023/09/29 04:24:17;;;;;;;4.50;3.83;;;12.20;99.90;;;;;;2067512;28;20870;-83
2023/09/29 04:25:17;;;;;;;4.30;3.77;;;12.20;99.90;;;;;;2067510;28;20591;-83
2023/09/29 04:26:20;;;;;;;4.27;3.80;;;12.30;99.90;;;;;;2068002;28;20205;-83
2023/09/29 04:27:20;;;;;;;5.35;3.70;;;12.20;99.90;;;;;;2072852;28;20190;-83
2023/09/29 04:28:21;;;;;;;4.40;3.80;;;12.20;99.90;;;;;;2075103;28;20225;-83
2023/09/29 04:29:22;;;;;;;5.67;4.17;;;12.20;99.90;;;;;;2073036;28;20232;-83
2023/09/29 04:30:22;;;;;;;5.60;3.73;;;12.20;99.90;;;;;;2075090;28;20284;-83
2023/09/29 04:31:23;;;;;;;4.20;3.40;;;12.40;99.90;;;;;;2075256;28;20234;-83
2023/09/29 04:32:24;;;;;;;5.43;3.90;;;12.30;99.90;;;;;;2074878;28;20685;-83
2023/09/29 04:33:24;;;;;;;4.50;4.00;;;12.30;99.90;;;;;;2075409;28;20244;-83
2023/09/29 04:34:25;;;;;;;4.50;3.70;;;12.30;99.90;;;;;;2082955;28;20228;-83
2023/09/29 04:35:25;;;;;;;4.33;3.57;;;12.20;99.90;;;;;;2075005;28;20225;-83
2023/09/29 04:36:26;;;;;;;4.10;3.70;;;12.10;99.90;;;;;;2074665;28;20229;-83
2023/09/29 04:37:27;;;;;;;5.27;4.07;;;12.20;99.90;;;;;;2075364;28;20225;-82
2023/09/29 04:38:27;;;;;;;4.33;3.73;;;12.20;99.90;;;;;;2075686;28;20233;-82
2023/09/29 04:39:28;;;;;;;5.10;3.50;;;12.20;99.90;;;;;;2074706;28;20248;-83
2023/09/29 04:40:28;;;;;;;4.33;3.60;;;12.20;99.90;;;;;;2075060;28;20805;-83
2023/09/29 04:41:29;;;;;;;4.17;3.63;;;12.20;99.90;;;;;;2067681;28;20341;-82
2023/09/29 04:42:31;;;;;;;4.70;3.90;;;12.20;99.90;;;;;;2067720;28;20368;-84
2023/09/29 04:43:31;;;;;;;4.30;3.75;;;12.20;99.90;;;;;;2067948;28;20254;-83
2023/09/29 04:44:32;;;;;;;4.83;3.47;;;12.20;99.90;;;;;;2073031;28;21355;-82
2023/09/29 04:45:33;;;;;;;4.30;3.50;;;12.30;99.90;;;;;;2077857;28;20325;-82
2023/09/29 04:46:34;;;;;;;4.32;3.63;;;12.30;99.90;;;;;;2075955;28;20305;-83
2023/09/29 04:47:35;;;;;;;7.63;3.90;;;12.30;99.90;;;;;;2068149;28;20222;-83
2023/09/29 04:48:35;;;;;;;4.27;3.50;;;12.30;99.90;;;;;;2076129;28;20320;-83
2023/09/29 04:49:36;;;;;;;4.67;3.90;;;12.30;99.90;;;;;;2075870;28;20240;-83
2023/09/29 04:50:36;;;;;;;3.93;3.60;;;12.30;99.90;;;;;;2076243;28;20252;-83
2023/09/29 04:51:37;;;;;;;5.77;3.93;;;12.30;99.90;;;;;;2076922;28;20233;-82
2023/09/29 04:52:38;;;;;;;4.17;3.63;;;12.30;99.90;;;;;;2072314;28;20217;-82
2023/09/29 04:53:38;;;;;;;6.60;3.70;;;12.30;99.90;;;;;;2081259;28;20221;-82
2023/09/29 04:54:39;;;;;;;5.90;4.10;;;12.40;99.90;;;;;;2080520;28;20253;-83
2023/09/29 04:55:40;;;;;;;4.43;3.50;;;12.40;99.90;;;;;;2080603;28;20236;-82
2023/09/29 04:56:40;;;;;;;4.10;3.43;;;12.40;99.90;;;;;;2068297;28;20237;-83
2023/09/29 04:57:41;;;;;;;4.17;3.77;;;12.40;99.90;;;;;;2068732;28;20372;-83
2023/09/29 04:58:41;;;;;;;4.87;3.93;;;12.40;99.90;;;;;;2076644;28;20229;-83
2023/09/29 04:59:42;;;;;;;4.20;3.80;;;12.40;99.90;;;;;;2076505;28;20272;-83
2023/09/29 05:00:43;;;;;;;4.93;3.93;;;12.40;99.90;;;;;;2068006;28;20226;-84
2023/09/29 05:01:43;;;;;;;4.70;3.60;;;12.50;99.90;;;;;;2075961;28;20706;-83
2023/09/29 05:02:44;;;;;;;3.83;3.40;;;12.40;99.90;;;;;;2075819;28;20233;-83
2023/09/29 05:03:47;;;;;;;4.63;3.67;;;12.40;99.90;;;;;;2076099;28;20237;-84
2023/09/29 05:04:47;;;;;;;4.50;3.83;;;12.40;99.90;;;;;;2075398;28;20236;-84
2023/09/29 05:05:48;;;;;;;5.57;3.60;;;12.40;99.90;;;;;;2076246;28;20308;-83
2023/09/29 05:06:48;;;;;;;4.70;3.50;;;12.40;99.90;;;;;;2075410;28;20248;-84
2023/09/29 05:07:49;;;;;;;4.00;3.60;;;12.50;99.90;;;;;;2067397;28;20221;-84
2023/09/29 05:08:50;;;;;;;4.20;3.67;;;12.50;99.90;;;;;;2066951;28;20249;-82
2023/09/29 05:09:51;;;;;;;4.47;3.40;;;12.50;99.90;;;;;;2074127;28;20240;-83
2023/09/29 05:10:52;;;;;;;4.67;3.30;;;12.50;99.90;;;;;;2074514;28;20249;-85
2023/09/29 05:11:52;;;;;;;3.67;3.27;;;12.50;99.90;;;;;;2075667;28;20226;-82
2023/09/29 05:12:53;;;;;;;4.60;3.50;;;12.40;99.90;;;;;;2075101;28;20225;-83
2023/09/29 05:13:54;;;;;;;3.80;3.47;;;12.40;99.90;;;;;;2067323;28;20230;-81
2023/09/29 05:14:55;;;;;;;3.90;3.38;;;12.50;99.90;;;;;;2075644;28;20233;-82
2023/09/29 05:15:55;;;;;;;3.37;3.07;;;12.60;99.90;;;;;;2075886;28;20256;-83
2023/09/29 05:16:56;;;;;;;5.43;3.03;;;12.60;99.90;;;;;;2075330;28;20249;-83
2023/09/29 05:17:56;;;;;;;4.37;3.30;;;12.60;99.90;;;;;;2074583;28;20253;-84
2023/09/29 05:18:58;;;;;;;3.70;3.40;;;12.50;99.90;;;;;;2074812;28;20323;-81